This is the latest recevied weather packets stored in our database for station/object EA6AMI-5. If no packets are shown the sender has not sent any weather packets the latest 1 day(s).
| Time | Temp. | Humidity | Pressure | Rain* | Wind** | Luminosity | Snow |
|---|---|---|---|---|---|---|---|
| 1836274677 | 20.56° C | 87% | 1022.6 hPa | 0 mm | 0.45 m/s, 139° | 0 W/m² | - |
| 1836274467 | 20.56° C | 87% | 1022.6 hPa | 0 mm | 0.45 m/s, 130° | 0 W/m² | - |
| 1836274137 | 20.56° C | 87% | 1022.5 hPa | 0 mm | 0.89 m/s, 163° | 0 W/m² | - |
| 1778058543 | 20.56° C | 58% | 1012.1 hPa | 0 mm | 1.79 m/s, 138° | 644 W/m² | - |
| 1778058004 | 20° C | 56% | 1012 hPa | 0 mm | 1.79 m/s, 137° | 589 W/m² | - |
| 1778057643 | 20° C | 56% | 1012.1 hPa | 0 mm | 1.34 m/s, 126° | 567 W/m² | - |
| 1778057103 | 19.44° C | 59% | 1012 hPa | 0 mm | 1.34 m/s, 161° | 545 W/m² | - |
| 1778056563 | 20° C | 59% | 1012.4 hPa | 0 mm | 1.34 m/s, 124° | 508 W/m² | - |
| 1778056024 | 19.44° C | 60% | 1012.2 hPa | 0 mm | 1.79 m/s, 137° | 477 W/m² | - |
| 1778055483 | 19.44° C | 64% | 1012.3 hPa | 0 mm | 1.34 m/s, 145° | 432 W/m² | - |
| 1778054943 | 18.89° C | 64% | 1012.3 hPa | 0 mm | 1.34 m/s, 136° | 386 W/m² | - |
| 1778054403 | 18.89° C | 65% | 1012.3 hPa | 0 mm | 0.89 m/s, 139° | 385 W/m² | - |
| 1778054043 | 18.33° C | 66% | 1012.1 hPa | 0 mm | 0.89 m/s, 150° | 361 W/m² | - |
| 1778053503 | 18.33° C | 67% | 1012.2 hPa | 0 mm | 1.79 m/s, 126° | 329 W/m² | - |
| 1778052963 | 18.33° C | 68% | 1012.2 hPa | 0 mm | 1.34 m/s, 129° | 308 W/m² | - |
| 1778052424 | 17.78° C | 70% | 1012.3 hPa | 0 mm | 1.34 m/s, 118° | 293 W/m² | - |
| 1778051883 | 17.78° C | 72% | 1012.3 hPa | 0 mm | 1.34 m/s, 114° | 275 W/m² | - |
| 1778051344 | 17.22° C | 77% | 1012.1 hPa | 0 mm | 1.79 m/s, 123° | 244 W/m² | - |
| 1778050804 | 16.67° C | 79% | 1012.1 hPa | 0 mm | 1.34 m/s, 106° | 161 W/m² | - |
| 1778050443 | 15.56° C | 83% | 1012.3 hPa | 0 mm | 0.89 m/s, 89° | 151 W/m² | - |
| 1778049904 | 15° C | 84% | 1012.2 hPa | 0 mm | 0.89 m/s, 69° | 63 W/m² | - |
| 1778049363 | 14.44° C | 84% | 1012.4 hPa | 0 mm | 0.89 m/s, 109° | 59 W/m² | - |
| 1778048823 | 14.44° C | 83% | 1012.5 hPa | 0 mm | 1.34 m/s, 115° | 45 W/m² | - |
| 1778048284 | 14.44° C | 86% | 1012.5 hPa | 0 mm | 0.89 m/s, 107° | 55 W/m² | - |
| 1778047744 | 14.44° C | 87% | 1012.5 hPa | 0 mm | 0.89 m/s, 67° | 39 W/m² | - |
* Rain latest hour (hover to see other rain measurements)
** Current wind speed in m/s (hover to see current wind gust speed)